createdAt,value
2019-02-25T00:01:55.305Z,15.80
2019-02-25T00:04:21.476Z,15.70
2019-02-25T00:06:49.209Z,12.95
2019-02-25T00:09:15.436Z,16.05
2019-02-25T00:11:42.996Z,15.28
2019-02-25T00:14:09.182Z,11.90
2019-02-25T00:16:35.393Z,15.32
2019-02-25T00:19:01.558Z,13.38
2019-02-25T00:21:42.739Z,16.87
2019-02-25T00:24:09.905Z,13.40
2019-02-25T00:26:36.085Z,17.55
2019-02-25T00:29:02.255Z,13.10
2019-02-25T00:31:28.504Z,14.28
2019-02-25T00:33:54.758Z,14.78
2019-02-25T00:36:20.960Z,12.78
2019-02-25T00:38:47.137Z,13.35
2019-02-25T00:41:13.404Z,15.45
2019-02-25T00:43:39.556Z,11.55
2019-02-25T00:46:05.762Z,13.38
2019-02-25T00:48:31.919Z,12.07
2019-02-25T00:50:58.129Z,14.53
2019-02-25T00:53:24.301Z,12.53
2019-02-25T00:55:50.477Z,13.72
2019-02-25T00:58:16.679Z,12.47
2019-02-25T01:00:42.838Z,11.90
2019-02-25T01:03:09.013Z,12.50
2019-02-25T01:05:35.200Z,14.07
2019-02-25T01:08:01.403Z,12.68
2019-02-25T01:10:27.560Z,14.20
2019-02-25T01:12:53.784Z,12.90
2019-02-25T01:15:20.218Z,12.93
2019-02-25T01:17:46.421Z,13.83
2019-02-25T01:20:13.891Z,14.58
2019-02-25T01:22:40.266Z,14.40
2019-02-25T01:25:09.552Z,16.15
2019-02-25T01:27:35.764Z,12.33
2019-02-25T01:30:04.606Z,12.45
2019-02-25T01:32:32.099Z,14.60
2019-02-25T01:34:58.264Z,15.93
2019-02-25T01:37:24.458Z,14.00
2019-02-25T01:39:50.689Z,12.78
2019-02-25T01:42:16.860Z,12.93
2019-02-25T01:44:43.138Z,14.30
2019-02-25T01:47:09.337Z,10.60
2019-02-25T01:49:35.556Z,15.35
2019-02-25T01:52:02.877Z,15.95
2019-02-25T01:54:29.078Z,14.93
2019-02-25T01:56:55.248Z,14.23
2019-02-25T01:59:21.717Z,21.15
2019-02-25T02:01:47.880Z,20.92
2019-02-25T02:04:14.092Z,14.85
2019-02-25T02:06:40.288Z,14.23
2019-02-25T02:09:07.815Z,16.52
2019-02-25T02:11:35.423Z,14.58
2019-02-25T02:14:01.641Z,18.27
2019-02-25T02:16:27.858Z,16.55
2019-02-25T02:18:54.022Z,20.00
2019-02-25T02:21:20.208Z,17.17
2019-02-25T02:23:46.424Z,18.60
2019-02-25T02:26:12.619Z,14.47
2019-02-25T02:28:38.785Z,17.32
2019-02-25T02:31:05.003Z,16.93
2019-02-25T02:33:31.317Z,18.17
2019-02-25T02:35:57.509Z,19.70
2019-02-25T02:38:23.923Z,18.55
2019-02-25T02:40:51.124Z,17.80
2019-02-25T02:43:17.368Z,17.40
2019-02-25T02:45:53.590Z,20.15
2019-02-25T02:48:29.667Z,18.32
2019-02-25T02:50:55.984Z,17.00
2019-02-25T02:53:22.149Z,16.25
2019-02-25T02:55:48.377Z,16.82
2019-02-25T02:58:14.530Z,16.67
2019-02-25T03:00:40.723Z,16.00
2019-02-25T03:03:06.888Z,17.80
2019-02-25T03:05:33.118Z,15.08
2019-02-25T03:07:59.551Z,16.42
2019-02-25T03:10:25.713Z,15.90
2019-02-25T03:12:52.021Z,19.10
2019-02-25T03:15:19.788Z,20.85
2019-02-25T03:17:46.007Z,14.98
2019-02-25T03:20:12.523Z,16.82
2019-02-25T03:22:38.679Z,16.55
2019-02-25T03:25:07.272Z,16.97
2019-02-25T03:27:33.466Z,13.58
2019-02-25T03:29:59.700Z,13.85
2019-02-25T03:32:25.893Z,14.70
2019-02-25T03:34:52.080Z,13.13
2019-02-25T03:37:18.236Z,15.50
2019-02-25T03:39:44.464Z,18.17
2019-02-25T03:42:10.724Z,19.10
2019-02-25T03:44:36.884Z,15.10
2019-02-25T03:47:03.072Z,14.80
2019-02-25T03:49:29.233Z,13.40
2019-02-25T03:51:55.737Z,15.50
2019-02-25T03:54:21.931Z,17.87
2019-02-25T03:56:48.114Z,15.00
2019-02-25T03:59:14.315Z,13.65
2019-02-25T04:01:40.500Z,15.23
2019-02-25T04:04:06.677Z,16.35
2019-02-25T04:06:32.855Z,17.80
2019-02-25T04:08:59.021Z,15.28
2019-02-25T04:11:25.260Z,18.07
2019-02-25T04:13:51.423Z,13.78
2019-02-25T04:16:17.616Z,14.30
2019-02-25T04:18:43.776Z,15.15
2019-02-25T04:21:09.960Z,15.70
2019-02-25T04:23:36.383Z,14.75
2019-02-25T04:26:02.600Z,14.30
2019-02-25T04:28:28.770Z,14.75
2019-02-25T04:30:54.976Z,13.25
2019-02-25T04:33:21.174Z,13.72
2019-02-25T04:35:47.367Z,16.40
2019-02-25T04:38:13.572Z,19.02
2019-02-25T04:40:39.872Z,16.20
2019-02-25T04:43:06.069Z,15.23
2019-02-25T04:45:32.238Z,15.65
2019-02-25T04:47:58.416Z,14.80
2019-02-25T04:50:24.717Z,12.75
2019-02-25T04:52:51.675Z,14.58
2019-02-25T04:55:17.862Z,15.30
2019-02-25T04:57:44.073Z,15.90
2019-02-25T05:00:15.885Z,12.80
2019-02-25T05:02:42.077Z,13.85
2019-02-25T05:05:09.254Z,12.70
2019-02-25T05:07:35.457Z,12.98
2019-02-25T05:10:02.769Z,15.05
2019-02-25T05:12:28.935Z,18.65
2019-02-25T05:14:55.113Z,16.77
2019-02-25T05:17:21.285Z,13.25
2019-02-25T05:19:47.456Z,13.38
2019-02-25T05:22:13.628Z,11.75
2019-02-25T05:24:39.821Z,13.15
2019-02-25T05:27:05.994Z,13.22
2019-02-25T05:29:32.179Z,18.12
2019-02-25T05:31:58.393Z,15.18
2019-02-25T05:34:24.577Z,15.88
2019-02-25T05:36:51.923Z,16.35
2019-02-25T05:39:18.116Z,15.50
2019-02-25T05:41:44.350Z,18.55
2019-02-25T05:44:10.568Z,19.17
2019-02-25T05:46:36.838Z,13.05
2019-02-25T05:49:03.000Z,14.45
2019-02-25T05:51:31.198Z,16.00
2019-02-25T05:53:57.352Z,16.75
2019-02-25T05:56:23.504Z,20.52
2019-02-25T05:58:49.797Z,20.02
2019-02-25T06:01:15.973Z,19.85
2019-02-25T06:03:42.172Z,14.45
2019-02-25T06:06:08.321Z,17.67
2019-02-25T06:08:34.537Z,17.10
2019-02-25T06:11:00.716Z,18.40
2019-02-25T06:13:26.916Z,15.32
2019-02-25T06:15:53.115Z,16.77
2019-02-25T06:18:19.292Z,15.28
2019-02-25T06:20:45.460Z,18.82
2019-02-25T06:23:11.907Z,15.60
2019-02-25T06:25:38.205Z,14.40
2019-02-25T06:28:04.630Z,14.45
2019-02-25T06:30:30.812Z,17.27
2019-02-25T06:32:56.984Z,16.10
2019-02-25T06:35:23.180Z,16.55
2019-02-25T06:37:49.349Z,17.73
2019-02-25T06:40:16.538Z,19.62
2019-02-25T06:42:42.758Z,14.50
2019-02-25T06:45:12.065Z,17.73
2019-02-25T06:47:38.221Z,17.27
2019-02-25T06:50:07.246Z,17.15
2019-02-25T06:52:33.508Z,17.32
2019-02-25T06:55:04.439Z,18.60
2019-02-25T06:57:30.803Z,16.93
2019-02-25T06:59:57.109Z,14.63
2019-02-25T07:02:23.281Z,17.23
2019-02-25T07:04:51.357Z,15.98
2019-02-25T07:07:19.444Z,18.87
2019-02-25T07:09:56.594Z,17.48
2019-02-25T07:12:25.705Z,17.73
2019-02-25T07:15:05.924Z,17.32
2019-02-25T07:17:40.289Z,17.12
2019-02-25T07:20:08.357Z,19.67
2019-02-25T07:22:39.268Z,21.05
2019-02-25T07:25:08.378Z,19.73
2019-02-25T07:27:53.281Z,21.65
2019-02-25T07:30:27.369Z,16.12
2019-02-25T07:33:13.613Z,19.80
2019-02-25T07:35:53.764Z,22.15
2019-02-25T07:38:39.764Z,18.17
2019-02-25T07:41:08.252Z,23.45
2019-02-25T07:43:36.369Z,17.62
2019-02-25T07:46:04.486Z,18.37
2019-02-25T07:48:49.315Z,17.02
2019-02-25T07:51:20.163Z,16.57
2019-02-25T07:56:32.037Z,17.30
2019-02-25T07:59:03.065Z,18.37
2019-02-25T08:01:31.131Z,17.50
2019-02-25T08:04:17.503Z,18.73
2019-02-25T08:06:51.468Z,19.20
2019-02-25T08:09:31.453Z,15.53
2019-02-25T08:12:05.481Z,16.95
2019-02-25T08:14:39.646Z,18.90
2019-02-25T08:17:07.748Z,20.75
2019-02-25T08:19:50.961Z,17.23
2019-02-25T08:22:22.936Z,16.52
2019-02-25T08:24:57.291Z,14.35
2019-02-25T08:30:22.628Z,15.25
2019-02-25T08:32:53.928Z,14.75
2019-02-25T08:35:31.976Z,16.12
2019-02-25T08:38:09.608Z,15.70
2019-02-25T08:40:59.276Z,21.90
2019-02-25T08:43:28.408Z,12.80
2019-02-25T08:45:59.511Z,14.93
2019-02-25T08:48:27.613Z,15.85
2019-02-25T08:50:53.838Z,18.30
2019-02-25T08:53:20.101Z,12.73
2019-02-25T08:55:46.309Z,14.03
2019-02-25T08:58:12.488Z,13.68
2019-02-25T09:00:38.651Z,14.05
2019-02-25T09:03:06.561Z,10.38
2019-02-25T09:05:32.725Z,13.55
2019-02-25T09:07:58.911Z,13.68
2019-02-25T09:10:25.110Z,13.28
2019-02-25T09:12:51.306Z,12.53
2019-02-25T09:15:17.522Z,13.50
2019-02-25T09:17:44.014Z,13.60
2019-02-25T09:20:11.417Z,14.70
2019-02-25T09:22:37.900Z,10.65
2019-02-25T09:25:07.317Z,11.43
2019-02-25T09:27:33.508Z,10.30
2019-02-25T09:29:59.687Z,14.33
2019-02-25T09:32:25.865Z,7.80
2019-02-25T09:34:52.054Z,11.55
2019-02-25T09:37:18.219Z,10.63
2019-02-25T09:39:44.388Z,9.80
2019-02-25T09:42:12.510Z,11.12
2019-02-25T09:44:38.746Z,8.95
2019-02-25T09:47:05.257Z,7.85
2019-02-25T09:49:31.497Z,15.88
2019-02-25T09:51:57.664Z,11.57
2019-02-25T09:54:23.855Z,14.20
2019-02-25T09:56:50.031Z,13.62
2019-02-25T09:59:16.298Z,13.13
2019-02-25T10:01:42.554Z,14.95
2019-02-25T10:04:09.842Z,20.00
2019-02-25T10:06:36.033Z,15.10
2019-02-25T10:09:03.503Z,18.52
2019-02-25T10:11:31.509Z,15.68
2019-02-25T10:13:57.867Z,13.93
2019-02-25T10:16:24.427Z,15.60
2019-02-25T10:18:50.586Z,18.02
2019-02-25T10:21:17.892Z,17.65
2019-02-25T10:23:44.379Z,13.18
2019-02-25T10:26:10.588Z,11.85
2019-02-25T10:28:37.793Z,9.08
2019-02-25T10:31:04.058Z,11.05
2019-02-25T10:33:30.232Z,19.35
2019-02-25T10:35:56.410Z,11.33
2019-02-25T10:38:22.609Z,11.00
2019-02-25T10:40:49.590Z,11.95
2019-02-25T10:43:17.033Z,9.63
2019-02-25T10:45:45.005Z,10.72
2019-02-25T10:48:11.671Z,12.37
2019-02-25T10:50:38.679Z,9.73
2019-02-25T10:53:07.523Z,11.60
2019-02-25T10:55:55.805Z,11.30
2019-02-25T10:58:22.080Z,11.93
2019-02-25T11:00:49.376Z,9.75
2019-02-25T11:03:17.402Z,9.40
2019-02-25T11:05:43.673Z,13.28
2019-02-25T11:08:13.731Z,8.05
2019-02-25T11:10:41.866Z,8.53
2019-02-25T11:13:08.054Z,10.58
2019-02-25T11:15:36.903Z,7.72
2019-02-25T11:18:05.344Z,10.03
2019-02-25T11:20:33.151Z,7.33
2019-02-25T11:22:59.671Z,11.83
2019-02-25T11:25:27.909Z,7.08
2019-02-25T11:27:54.133Z,6.87
2019-02-25T11:30:21.521Z,7.30
2019-02-25T11:32:49.131Z,7.62
2019-02-25T11:35:16.516Z,8.75
2019-02-25T11:37:42.708Z,10.45
2019-02-25T11:40:14.188Z,10.55
2019-02-25T11:42:40.378Z,7.50
2019-02-25T11:45:10.048Z,9.08
2019-02-25T11:47:36.452Z,7.85
2019-02-25T11:50:05.220Z,6.03
2019-02-25T11:52:31.388Z,8.00
2019-02-25T11:54:57.577Z,10.43
2019-02-25T11:57:23.745Z,8.55
2019-02-25T11:59:49.989Z,10.70
2019-02-25T12:02:25.000Z,8.13
2019-02-25T12:04:44.500Z,11.78
2019-02-25T12:07:10.793Z,6.83
2019-02-25T12:09:36.972Z,7.10
2019-02-25T12:12:03.139Z,10.70
2019-02-25T12:14:29.323Z,7.35
2019-02-25T12:16:55.489Z,10.08
2019-02-25T12:19:21.663Z,5.72
2019-02-25T12:21:47.881Z,12.65
2019-02-25T12:24:14.052Z,6.08
2019-02-25T12:26:40.249Z,7.10
2019-02-25T12:29:10.799Z,8.85
2019-02-25T12:31:34.511Z,7.87
2019-02-25T12:34:00.809Z,7.42
2019-02-25T12:36:27.010Z,8.75
2019-02-25T12:38:53.163Z,5.80
2019-02-25T12:41:19.337Z,8.13
2019-02-25T12:43:45.547Z,8.88
2019-02-25T12:46:11.715Z,8.43
2019-02-25T12:48:37.905Z,8.05
2019-02-25T12:51:04.113Z,8.03
2019-02-25T12:53:30.301Z,9.30
2019-02-25T12:55:56.493Z,10.30
2019-02-25T12:58:22.737Z,7.50
2019-02-25T13:00:48.957Z,7.17
2019-02-25T13:03:15.136Z,10.80
2019-02-25T13:05:41.324Z,8.28
2019-02-25T13:08:07.500Z,6.33
2019-02-25T13:10:33.710Z,7.25
2019-02-25T13:12:59.876Z,7.08
2019-02-25T13:15:26.082Z,8.90
2019-02-25T13:17:52.372Z,7.30
2019-02-25T13:20:18.539Z,6.40
2019-02-25T13:22:44.734Z,9.25
2019-02-25T13:25:20.666Z,6.03
2019-02-25T13:27:46.984Z,8.40
2019-02-25T13:30:16.563Z,8.10
2019-02-25T13:32:43.856Z,8.78
2019-02-25T13:35:14.032Z,12.25
2019-02-25T13:37:40.310Z,7.45
2019-02-25T13:40:08.694Z,7.47
2019-02-25T13:42:34.880Z,6.10
2019-02-25T13:45:01.089Z,7.55
2019-02-25T13:47:27.945Z,7.28
2019-02-25T13:49:55.522Z,6.97
2019-02-25T13:52:21.905Z,8.43
2019-02-25T13:54:48.177Z,7.40
2019-02-25T13:57:14.448Z,8.15
2019-02-25T13:59:43.389Z,10.15
2019-02-25T14:02:09.797Z,5.60
2019-02-25T14:04:36.026Z,9.18
2019-02-25T14:07:02.316Z,7.80
2019-02-25T14:09:28.593Z,7.42
2019-02-25T14:11:54.993Z,8.05
2019-02-25T14:14:21.149Z,5.33
2019-02-25T14:16:47.329Z,5.58
2019-02-25T14:19:13.700Z,6.45
2019-02-25T14:21:39.891Z,4.25
2019-02-25T14:24:06.335Z,5.65
2019-02-25T14:26:32.598Z,3.95
2019-02-25T14:28:58.792Z,4.92
2019-02-25T14:31:27.322Z,4.40
2019-02-25T14:33:53.065Z,3.72
2019-02-25T14:36:19.884Z,3.30
2019-02-25T14:38:46.203Z,9.15
2019-02-25T14:41:13.738Z,6.30
2019-02-25T14:43:46.228Z,7.37
2019-02-25T14:46:11.891Z,3.72
2019-02-25T14:48:36.698Z,6.75
2019-02-25T14:51:02.892Z,6.83
2019-02-25T14:53:29.693Z,5.90
2019-02-25T14:55:58.413Z,5.67
2019-02-25T14:58:25.292Z,9.23
2019-02-25T15:00:51.564Z,6.20
2019-02-25T15:03:18.190Z,2.98
2019-02-25T15:05:47.607Z,7.62
2019-02-25T15:08:14.052Z,7.30
2019-02-25T15:10:40.694Z,8.20
2019-02-25T15:13:08.887Z,8.15
2019-02-25T15:15:37.484Z,6.35
2019-02-25T15:18:04.800Z,8.75
2019-02-25T15:20:31.420Z,4.60
2019-02-25T15:22:57.992Z,9.93
2019-02-25T15:25:24.299Z,10.05
2019-02-25T15:27:50.566Z,7.72
2019-02-25T15:30:25.096Z,8.00
2019-02-25T15:32:55.697Z,6.53
2019-02-25T15:35:19.215Z,7.65
2019-02-25T15:37:46.693Z,8.03
2019-02-25T15:40:18.014Z,8.88
2019-02-25T15:42:43.152Z,11.10
2019-02-25T15:45:15.536Z,8.20
2019-02-25T15:47:42.493Z,8.70
2019-02-25T15:50:10.601Z,10.88
2019-02-25T15:52:40.198Z,7.37
2019-02-25T15:55:14.992Z,12.73
2019-02-25T15:57:40.168Z,6.78
2019-02-25T16:00:11.631Z,10.95
2019-02-25T16:02:39.665Z,7.47
2019-02-25T16:05:09.960Z,11.97
2019-02-25T16:07:38.067Z,12.28
2019-02-25T16:10:12.011Z,10.13
2019-02-25T16:12:39.189Z,10.55
2019-02-25T16:15:15.737Z,7.70
2019-02-25T16:17:44.436Z,8.48
2019-02-25T16:20:12.693Z,6.55
2019-02-25T16:22:40.700Z,8.55
2019-02-25T16:25:11.552Z,7.53
2019-02-25T16:27:38.004Z,10.43
2019-02-25T16:30:07.948Z,7.67
2019-02-25T16:32:34.691Z,7.80
2019-02-25T16:35:02.697Z,6.67
2019-02-25T16:37:31.217Z,7.35
2019-02-25T16:40:00.562Z,7.87
2019-02-25T16:42:26.295Z,10.60
2019-02-25T16:44:55.694Z,8.88
2019-02-25T16:47:31.930Z,7.72
2019-02-25T16:49:51.943Z,10.72
2019-02-25T16:52:20.083Z,8.85
2019-02-25T16:54:46.556Z,8.13
2019-02-25T16:57:14.258Z,9.85
2019-02-25T16:59:41.012Z,8.60
2019-02-25T17:02:11.917Z,9.75
2019-02-25T17:04:36.764Z,10.20
2019-02-25T17:07:03.072Z,6.70
2019-02-25T17:09:29.654Z,11.18
2019-02-25T17:11:55.946Z,11.70
2019-02-25T17:14:23.957Z,12.30
2019-02-25T17:16:50.354Z,9.48
2019-02-25T17:19:16.945Z,10.30
2019-02-25T17:21:43.678Z,10.40
2019-02-25T17:24:10.037Z,9.25
2019-02-25T17:26:36.410Z,16.80
2019-02-25T17:29:02.782Z,16.55
2019-02-25T17:31:30.562Z,12.30
2019-02-25T17:33:57.935Z,9.43
2019-02-25T17:36:24.168Z,11.75
2019-02-25T17:38:51.999Z,17.60
2019-02-25T17:41:18.426Z,9.95
2019-02-25T17:43:45.125Z,9.78
2019-02-25T17:46:11.660Z,15.43
2019-02-25T17:48:39.073Z,9.60
2019-02-25T17:51:05.350Z,12.10
2019-02-25T17:53:32.775Z,10.32
2019-02-25T17:55:59.884Z,11.35
2019-02-25T17:58:26.220Z,11.90
2019-02-25T18:00:54.149Z,9.83
2019-02-25T18:03:22.109Z,10.78
2019-02-25T18:05:49.520Z,12.90
2019-02-25T18:08:15.750Z,9.93
2019-02-25T18:10:43.102Z,9.68
2019-02-25T18:13:10.888Z,12.30
2019-02-25T18:15:37.468Z,14.60
2019-02-25T18:18:07.139Z,13.50
2019-02-25T18:20:31.858Z,13.53
2019-02-25T18:22:58.478Z,18.15
2019-02-25T18:25:24.646Z,10.95
2019-02-25T18:27:51.976Z,12.55
2019-02-25T18:30:25.679Z,10.65
2019-02-25T18:32:52.652Z,12.50
2019-02-25T18:35:21.144Z,9.20
2019-02-25T18:37:47.828Z,12.00
2019-02-25T18:40:16.372Z,13.90
2019-02-25T18:42:43.857Z,10.78
2019-02-25T18:45:16.013Z,11.57
2019-02-25T18:47:42.888Z,11.85
2019-02-25T18:50:15.162Z,17.35
2019-02-25T18:52:40.760Z,18.92
2019-02-25T18:55:11.152Z,13.18
2019-02-25T18:57:37.542Z,10.88
2019-02-25T19:00:07.566Z,14.80
2019-02-25T19:02:36.459Z,14.75
2019-02-25T19:05:06.623Z,16.37
2019-02-25T19:07:33.662Z,12.70
2019-02-25T19:10:00.023Z,13.10
2019-02-25T19:12:26.363Z,11.97
2019-02-25T19:14:55.169Z,14.55
2019-02-25T19:17:21.555Z,12.18
2019-02-25T19:19:51.541Z,19.67
2019-02-25T19:22:17.910Z,15.53
2019-02-25T19:24:46.651Z,18.73
2019-02-25T19:27:13.364Z,17.77
2019-02-25T19:29:39.564Z,27.82
2019-02-25T19:32:05.926Z,20.92
2019-02-25T19:34:32.296Z,20.77
2019-02-25T19:37:02.227Z,31.62
2019-02-25T19:39:27.109Z,23.10
2019-02-25T19:41:53.778Z,21.25
2019-02-25T19:44:21.235Z,21.33
2019-02-25T19:46:48.699Z,11.20
2019-02-25T19:49:18.119Z,14.65
2019-02-25T19:51:46.103Z,14.45
2019-02-25T19:54:13.862Z,14.45
2019-02-25T19:56:40.393Z,12.50
2019-02-25T19:59:07.970Z,13.62
2019-02-25T20:01:34.872Z,10.78
2019-02-25T20:04:04.351Z,14.38
2019-02-25T20:06:29.381Z,12.73
2019-02-25T20:08:56.423Z,15.45
2019-02-25T20:11:25.868Z,13.35
2019-02-25T20:13:52.020Z,12.73
2019-02-25T20:16:20.488Z,15.68
2019-02-25T20:18:46.433Z,11.20
2019-02-25T20:21:20.163Z,11.20
2019-02-25T20:23:49.673Z,13.93
2019-02-25T20:26:17.733Z,12.33
2019-02-25T20:28:46.241Z,14.87
2019-02-25T20:31:14.357Z,12.07
2019-02-25T20:33:40.844Z,14.75
2019-02-25T20:36:07.076Z,20.02
2019-02-25T20:38:34.700Z,13.70
2019-02-25T20:41:02.567Z,16.60
2019-02-25T20:43:30.822Z,10.70
2019-02-25T20:45:59.351Z,16.95
2019-02-25T20:48:27.262Z,11.90
2019-02-25T20:50:53.273Z,15.88
2019-02-25T20:53:19.472Z,17.27
2019-02-25T20:55:48.105Z,11.57
2019-02-25T20:58:16.263Z,21.35
2019-02-25T21:00:44.107Z,16.48
2019-02-25T21:03:13.977Z,13.13
2019-02-25T21:05:38.744Z,20.60
2019-02-25T21:08:04.937Z,13.32
2019-02-25T21:10:34.969Z,15.15
2019-02-25T21:13:01.871Z,14.20
2019-02-25T21:15:27.473Z,13.00
2019-02-25T21:17:54.979Z,10.80
2019-02-25T21:20:23.559Z,12.82
2019-02-25T21:22:52.885Z,14.98
2019-02-25T21:25:22.042Z,11.30
2019-02-25T21:27:47.476Z,11.88
2019-02-25T21:30:15.092Z,12.33
2019-02-25T21:32:43.258Z,9.60
2019-02-25T21:35:14.445Z,13.80
2019-02-25T21:37:43.392Z,13.28
2019-02-25T21:40:15.320Z,9.98
2019-02-25T21:42:43.760Z,16.62
2019-02-25T21:45:11.792Z,10.50
2019-02-25T21:47:38.500Z,12.45
2019-02-25T21:50:09.505Z,11.97
2019-02-25T21:52:36.842Z,8.95
2019-02-25T21:55:08.957Z,12.85
2019-02-25T21:57:35.886Z,11.57
2019-02-25T22:00:15.141Z,13.43
2019-02-25T22:02:43.522Z,12.07
2019-02-25T22:05:11.857Z,10.55
2019-02-25T22:07:40.310Z,12.03
2019-02-25T22:10:09.108Z,11.60
2019-02-25T22:12:37.598Z,11.12
2019-02-25T22:15:06.488Z,14.23
2019-02-25T22:17:32.935Z,12.75
2019-02-25T22:19:59.100Z,12.20
2019-02-25T22:22:26.958Z,12.03
2019-02-25T22:24:53.522Z,15.58
2019-02-25T22:27:21.172Z,14.95
2019-02-25T22:29:47.852Z,14.07
2019-02-25T22:32:14.071Z,11.78
2019-02-25T22:34:40.256Z,11.65
2019-02-25T22:37:07.973Z,12.28
2019-02-25T22:39:36.439Z,11.00
2019-02-25T22:42:03.572Z,13.13
2019-02-25T22:44:31.778Z,14.55
2019-02-25T22:46:58.823Z,15.83
2019-02-25T22:49:26.655Z,12.95
2019-02-25T22:51:55.769Z,10.05
2019-02-25T22:54:21.638Z,10.58
2019-02-25T22:56:47.904Z,13.68
2019-02-25T22:59:14.093Z,15.32
2019-02-25T23:01:40.385Z,9.95
2019-02-25T23:04:06.624Z,12.10
2019-02-25T23:06:34.322Z,12.93
2019-02-25T23:09:00.530Z,9.58
2019-02-25T23:11:26.728Z,13.53
2019-02-25T23:13:54.773Z,11.57
2019-02-25T23:16:24.874Z,13.35
2019-02-25T23:18:49.096Z,19.00
2019-02-25T23:21:23.483Z,12.88
2019-02-25T23:23:45.265Z,16.00
2019-02-25T23:26:12.606Z,11.97
2019-02-25T23:28:39.575Z,14.15
2019-02-25T23:31:05.735Z,12.35
2019-02-25T23:33:31.940Z,11.88
2019-02-25T23:35:59.255Z,13.55
2019-02-25T23:38:25.471Z,15.45
2019-02-25T23:40:51.620Z,11.63
2019-02-25T23:43:18.969Z,10.95
2019-02-25T23:45:46.403Z,11.78
2019-02-25T23:48:13.011Z,13.13
2019-02-25T23:50:39.212Z,9.95
2019-02-25T23:53:05.404Z,11.70
2019-02-25T23:55:33.474Z,11.73
2019-02-25T23:57:59.660Z,12.40
